Time;durP1;ratioP1;P1;durP2;ratioP2;P2;SDS_P1;SDS_P2;PMS_P1;PMS_P2;Temp;Humidity;BMP_temperature;BMP_pressure;BME280_temperature;BME280_humidity;BME280_pressure;Samples;Min_cycle;Max_cycle;Signal;HPM_P1;HPM_P2
2021/09/07 00:00:06;;;;;;;13.90;9.40;;;17.90;97.10;;;;;;4991656;28;20287;-86
2021/09/07 00:02:31;;;;;;;13.15;9.52;;;17.90;97.00;;;;;;4979021;28;20034;-87
2021/09/07 00:04:57;;;;;;;17.95;10.55;;;17.80;96.90;;;;;;4994682;28;20038;-85
2021/09/07 00:07:24;;;;;;;13.23;9.07;;;17.80;97.00;;;;;;4997146;28;20046;-85
2021/09/07 00:09:50;;;;;;;14.15;9.80;;;17.80;97.00;;;;;;4988770;28;20089;-86
2021/09/07 00:12:16;;;;;;;12.73;8.65;;;17.80;97.00;;;;;;4995893;28;20038;-86
2021/09/07 00:14:41;;;;;;;12.05;8.77;;;17.80;97.00;;;;;;4994600;28;20034;-85
2021/09/07 00:17:08;;;;;;;10.63;8.00;;;17.70;97.00;;;;;;5011974;28;20428;-85
2021/09/07 00:19:34;;;;;;;14.45;10.38;;;17.70;97.00;;;;;;4977681;28;20376;-87
2021/09/07 00:21:59;;;;;;;16.83;10.23;;;17.70;97.10;;;;;;4995878;28;20030;-86
2021/09/07 00:24:25;;;;;;;13.23;9.52;;;17.70;97.20;;;;;;4995393;28;20129;-87
2021/09/07 00:26:51;;;;;;;14.45;9.73;;;17.70;97.30;;;;;;4994857;28;20038;-87
2021/09/07 00:29:17;;;;;;;13.80;10.25;;;17.60;97.40;;;;;;4992603;28;20116;-86
2021/09/07 00:31:42;;;;;;;15.95;10.85;;;17.60;97.40;;;;;;4979050;28;20097;-87
2021/09/07 00:34:08;;;;;;;14.52;10.32;;;17.50;97.40;;;;;;4993007;28;20434;-87
2021/09/07 00:36:33;;;;;;;15.18;10.43;;;17.50;97.50;;;;;;4976938;28;20031;-87
2021/09/07 00:38:59;;;;;;;14.45;10.30;;;17.50;97.60;;;;;;4977504;28;20173;-87
2021/09/07 00:41:24;;;;;;;15.95;10.25;;;17.50;97.60;;;;;;5012222;28;20046;-87
2021/09/07 00:43:50;;;;;;;14.35;10.05;;;17.40;97.70;;;;;;4979859;28;20457;-87
2021/09/07 00:46:15;;;;;;;13.57;9.63;;;17.40;97.80;;;;;;4997109;28;20121;-87
2021/09/07 00:48:41;;;;;;;13.13;10.07;;;17.40;97.90;;;;;;5012112;28;20038;-87
2021/09/07 00:51:06;;;;;;;14.98;10.57;;;17.40;98.00;;;;;;4985286;28;20054;-86
2021/09/07 00:53:32;;;;;;;16.95;10.93;;;17.30;98.00;;;;;;4996515;28;20034;-87
2021/09/07 00:55:59;;;;;;;14.80;10.52;;;17.30;98.20;;;;;;4991360;28;20512;-87
2021/09/07 00:58:30;;;;;;;15.02;10.18;;;17.30;98.30;;;;;;4977922;28;20156;-86
2021/09/07 01:00:56;;;;;;;15.57;10.98;;;17.30;98.30;;;;;;4993656;28;20492;-85
2021/09/07 01:03:22;;;;;;;17.70;11.02;;;17.30;98.40;;;;;;4993710;28;20128;-84
2021/09/07 01:05:47;;;;;;;16.15;10.85;;;17.30;98.40;;;;;;4993667;28;20059;-85
2021/09/07 01:08:14;;;;;;;13.82;10.02;;;17.30;98.40;;;;;;4996303;28;20041;-85
2021/09/07 01:10:40;;;;;;;16.55;11.27;;;17.30;98.50;;;;;;4996679;28;20042;-87
2021/09/07 01:13:05;;;;;;;15.73;11.20;;;17.30;98.50;;;;;;4977801;28;20121;-86
2021/09/07 01:15:31;;;;;;;15.90;10.52;;;17.30;98.60;;;;;;4979297;28;20065;-86
2021/09/07 01:17:56;;;;;;;15.00;9.90;;;17.30;98.60;;;;;;5009917;28;20104;-85
2021/09/07 01:20:22;;;;;;;15.88;11.35;;;17.30;98.60;;;;;;5011219;28;20560;-86
2021/09/07 01:22:47;;;;;;;18.50;9.93;;;17.30;98.60;;;;;;4978392;28;20038;-85
2021/09/07 01:25:13;;;;;;;12.88;9.77;;;17.30;98.60;;;;;;4994793;28;20149;-85
2021/09/07 01:27:38;;;;;;;15.30;10.30;;;17.30;98.60;;;;;;5009211;28;20046;-85
2021/09/07 01:30:04;;;;;;;16.77;10.80;;;17.30;98.50;;;;;;4979892;28;20046;-86
2021/09/07 01:32:30;;;;;;;18.33;10.55;;;17.30;98.50;;;;;;4992693;28;20054;-85
2021/09/07 01:34:55;;;;;;;14.45;9.75;;;17.30;98.50;;;;;;4993294;28;20043;-86
2021/09/07 01:37:21;;;;;;;12.50;9.52;;;17.30;98.50;;;;;;4979847;28;20100;-86
2021/09/07 01:39:47;;;;;;;16.23;11.52;;;17.30;98.50;;;;;;4978831;28;20034;-86
2021/09/07 01:42:13;;;;;;;15.68;10.80;;;17.30;98.60;;;;;;4992202;28;20342;-86
2021/09/07 01:44:41;;;;;;;13.95;9.85;;;17.30;98.60;;;;;;4988337;28;20038;-86
2021/09/07 01:47:08;;;;;;;14.48;10.65;;;17.30;98.60;;;;;;4992238;28;20116;-85
2021/09/07 01:49:34;;;;;;;16.25;11.27;;;17.30;98.60;;;;;;4981831;28;20054;-86
2021/09/07 01:52:11;;;;;;;17.88;10.40;;;17.30;98.70;;;;;;4978342;28;20111;-84
2021/09/07 01:54:41;;;;;;;14.98;11.05;;;17.20;98.70;;;;;;4979009;28;20046;-84
2021/09/07 01:57:07;;;;;;;16.85;10.88;;;17.20;98.70;;;;;;4993141;28;20069;-85
2021/09/07 01:59:33;;;;;;;14.75;10.98;;;17.20;98.80;;;;;;5008524;28;20270;-86
2021/09/07 02:01:59;;;;;;;16.98;10.38;;;17.20;98.80;;;;;;4995587;28;20041;-85
2021/09/07 02:04:24;;;;;;;16.25;10.13;;;17.20;98.80;;;;;;4977878;28;20313;-84
2021/09/07 02:06:50;;;;;;;16.50;11.00;;;17.20;98.80;;;;;;4993495;28;20122;-85
2021/09/07 02:09:15;;;;;;;12.85;9.35;;;17.20;98.80;;;;;;5000817;28;20034;-86
2021/09/07 02:11:40;;;;;;;16.00;11.35;;;17.20;98.70;;;;;;4974956;28;20049;-86
2021/09/07 02:14:06;;;;;;;16.55;11.02;;;17.20;98.60;;;;;;4992383;28;20147;-85
2021/09/07 02:16:32;;;;;;;17.17;11.10;;;17.30;98.50;;;;;;4989823;28;20057;-86
2021/09/07 02:18:57;;;;;;;14.68;10.27;;;17.30;98.50;;;;;;5003949;28;20366;-86
2021/09/07 02:21:23;;;;;;;15.27;10.88;;;17.30;98.30;;;;;;4997539;28;20144;-85
2021/09/07 02:23:48;;;;;;;15.10;9.77;;;17.30;98.20;;;;;;4983290;28;20042;-85
2021/09/07 02:26:14;;;;;;;17.17;9.68;;;17.30;98.20;;;;;;4993896;28;20049;-87
2021/09/07 02:28:39;;;;;;;17.02;10.75;;;17.30;98.10;;;;;;5010029;28;20057;-86
2021/09/07 02:31:05;;;;;;;14.90;9.50;;;17.30;98.00;;;;;;5007074;28;20504;-86
2021/09/07 02:33:30;;;;;;;16.73;10.68;;;17.30;97.90;;;;;;4984869;28;20046;-87
2021/09/07 02:35:56;;;;;;;17.02;11.20;;;17.30;97.70;;;;;;4996900;28;20046;-87
2021/09/07 02:38:23;;;;;;;14.05;8.75;;;17.30;97.70;;;;;;5011035;28;20038;-87
2021/09/07 02:40:48;;;;;;;16.05;10.43;;;17.30;97.70;;;;;;4993116;28;20046;-86
2021/09/07 02:43:14;;;;;;;15.88;9.88;;;17.30;97.70;;;;;;4977587;28;20048;-86
2021/09/07 02:45:39;;;;;;;19.58;9.57;;;17.30;97.60;;;;;;4975247;28;20042;-87
2021/09/07 02:48:05;;;;;;;13.48;9.93;;;17.30;97.50;;;;;;4993107;28;20481;-86
2021/09/07 02:50:30;;;;;;;13.98;9.77;;;17.30;97.40;;;;;;5021421;28;20046;-84
2021/09/07 02:52:56;;;;;;;17.83;9.43;;;17.30;97.40;;;;;;5009668;28;20093;-85
2021/09/07 02:55:21;;;;;;;15.13;9.13;;;17.30;97.40;;;;;;5006246;28;20046;-87
2021/09/07 02:57:47;;;;;;;15.43;10.70;;;17.30;97.40;;;;;;4990922;28;20047;-87
2021/09/07 03:00:12;;;;;;;14.68;10.48;;;17.30;97.40;;;;;;4977531;28;20137;-87
2021/09/07 03:02:38;;;;;;;14.98;9.90;;;17.30;97.40;;;;;;4992475;28;20034;-86
2021/09/07 03:05:04;;;;;;;15.77;10.63;;;17.30;97.30;;;;;;4974393;28;20042;-86
2021/09/07 03:07:29;;;;;;;14.32;9.10;;;17.30;97.40;;;;;;4978709;28;20283;-86
2021/09/07 03:09:55;;;;;;;14.63;9.65;;;17.30;97.40;;;;;;4977483;28;20043;-86
2021/09/07 03:12:20;;;;;;;17.90;10.25;;;17.30;97.40;;;;;;4988648;28;20046;-87
2021/09/07 03:14:46;;;;;;;16.52;9.77;;;17.30;97.30;;;;;;4976959;28;20189;-85
2021/09/07 03:17:11;;;;;;;15.48;9.93;;;17.30;97.20;;;;;;4989888;28;20109;-86
2021/09/07 03:19:37;;;;;;;18.42;9.27;;;17.30;97.10;;;;;;4991165;28;20085;-85
2021/09/07 03:22:02;;;;;;;15.38;10.32;;;17.30;97.00;;;;;;4993937;28;20047;-86
2021/09/07 03:24:28;;;;;;;13.63;10.07;;;17.30;97.10;;;;;;4993459;28;20042;-86
2021/09/07 03:26:53;;;;;;;11.95;8.88;;;17.30;97.10;;;;;;4977727;28;20030;-86
2021/09/07 03:29:19;;;;;;;16.02;9.52;;;17.30;97.10;;;;;;5009671;28;20177;-85
2021/09/07 03:31:44;;;;;;;19.83;9.88;;;17.30;97.20;;;;;;4993304;28;20338;-87
2021/09/07 03:34:10;;;;;;;14.55;9.82;;;17.30;97.20;;;;;;5010886;28;20038;-86
2021/09/07 03:36:35;;;;;;;15.93;10.07;;;17.30;97.10;;;;;;4977966;28;20129;-86
2021/09/07 03:39:01;;;;;;;18.17;10.75;;;17.30;97.10;;;;;;5011661;28;20050;-88
2021/09/07 03:41:26;;;;;;;17.80;10.80;;;17.30;97.10;;;;;;4994990;28;20034;-86
2021/09/07 03:43:52;;;;;;;17.33;10.85;;;17.30;97.10;;;;;;4978951;28;20468;-86
2021/09/07 03:46:17;;;;;;;15.80;9.90;;;17.30;97.10;;;;;;5011445;28;20042;-85
2021/09/07 03:48:44;;;;;;;18.10;9.75;;;17.30;97.20;;;;;;4997054;28;20128;-86
2021/09/07 03:51:09;;;;;;;15.07;10.52;;;17.30;97.20;;;;;;4994986;28;20104;-86
2021/09/07 03:53:35;;;;;;;16.92;10.38;;;17.30;97.20;;;;;;4996543;28;20042;-85
2021/09/07 03:56:00;;;;;;;14.95;9.70;;;17.30;97.30;;;;;;4996860;28;20081;-86
2021/09/07 03:58:26;;;;;;;17.67;10.68;;;17.20;97.30;;;;;;4997193;28;20038;-86
2021/09/07 04:00:52;;;;;;;14.63;10.27;;;17.30;97.20;;;;;;4984219;28;20035;-85
2021/09/07 04:03:19;;;;;;;19.17;11.10;;;17.20;97.10;;;;;;4994151;28;20042;-86
2021/09/07 04:05:47;;;;;;;15.65;10.20;;;17.30;97.10;;;;;;4993708;28;20663;-86
2021/09/07 04:08:13;;;;;;;16.45;9.57;;;17.30;97.10;;;;;;4999198;28;20045;-86
2021/09/07 04:10:39;;;;;;;17.77;9.77;;;17.30;97.20;;;;;;4981391;28;20034;-85
2021/09/07 04:13:05;;;;;;;16.30;9.25;;;17.30;97.30;;;;;;4979971;28;20050;-86
2021/09/07 04:15:30;;;;;;;17.20;11.45;;;17.30;97.40;;;;;;4977838;28;20117;-85
2021/09/07 04:17:56;;;;;;;15.35;9.48;;;17.30;97.50;;;;;;4990450;28;20117;-87
2021/09/07 04:20:22;;;;;;;15.02;10.23;;;17.20;97.50;;;;;;4995436;28;20432;-87
2021/09/07 04:22:49;;;;;;;17.77;10.63;;;17.30;97.50;;;;;;4979478;28;20066;-86
2021/09/07 04:25:14;;;;;;;18.48;10.13;;;17.20;97.50;;;;;;4993663;28;20038;-86
2021/09/07 04:27:40;;;;;;;15.27;9.48;;;17.30;97.60;;;;;;4993707;28;20065;-86
2021/09/07 04:30:07;;;;;;;14.82;9.35;;;17.20;97.60;;;;;;4993488;28;20425;-87
2021/09/07 04:32:33;;;;;;;18.77;9.57;;;17.20;97.60;;;;;;5007035;28;20050;-86
2021/09/07 04:34:59;;;;;;;15.25;10.43;;;17.30;97.70;;;;;;4988947;28;20045;-86
2021/09/07 04:37:24;;;;;;;15.52;9.60;;;17.20;97.70;;;;;;4993355;28;20022;-87
2021/09/07 04:39:50;;;;;;;19.35;10.85;;;17.20;97.80;;;;;;5003128;28;20128;-86
2021/09/07 04:42:16;;;;;;;14.73;10.57;;;17.20;97.90;;;;;;4973455;28;20038;-86
2021/09/07 04:44:45;;;;;;;16.13;10.50;;;17.20;97.90;;;;;;4991294;28;20343;-87
2021/09/07 04:47:11;;;;;;;15.25;9.85;;;17.20;97.90;;;;;;4996631;28;20042;-86
2021/09/07 04:49:37;;;;;;;15.45;9.70;;;17.20;97.90;;;;;;5010404;28;20038;-86
2021/09/07 04:52:04;;;;;;;14.40;9.45;;;17.20;97.90;;;;;;4991562;28;20391;-86
2021/09/07 04:54:29;;;;;;;13.43;9.60;;;17.20;98.00;;;;;;4983560;28;20136;-86
2021/09/07 04:56:55;;;;;;;12.98;9.13;;;17.20;98.00;;;;;;5011439;28;20604;-86
2021/09/07 04:59:20;;;;;;;19.05;10.20;;;17.20;98.00;;;;;;4996900;28;20065;-86
2021/09/07 05:01:46;;;;;;;15.85;10.05;;;17.20;98.00;;;;;;4995912;28;20066;-83
2021/09/07 05:04:12;;;;;;;16.42;10.70;;;17.20;97.90;;;;;;4979629;28;20097;-86
2021/09/07 05:06:37;;;;;;;17.30;10.27;;;17.20;97.80;;;;;;4994314;28;20034;-85
2021/09/07 05:09:03;;;;;;;18.73;10.40;;;17.20;97.80;;;;;;4979649;28;20038;-85
2021/09/07 05:11:28;;;;;;;13.98;10.25;;;17.20;97.80;;;;;;4982403;28;20141;-85
2021/09/07 05:13:54;;;;;;;16.58;10.00;;;17.30;97.90;;;;;;4991877;28;20088;-87
2021/09/07 05:16:19;;;;;;;14.68;10.13;;;17.30;97.90;;;;;;5010111;28;20129;-86
2021/09/07 05:18:45;;;;;;;18.23;10.30;;;17.30;97.90;;;;;;4995743;28;20083;-86
2021/09/07 05:21:10;;;;;;;17.90;10.77;;;17.30;97.90;;;;;;5012141;28;20042;-84
2021/09/07 05:23:37;;;;;;;15.13;10.18;;;17.30;97.90;;;;;;4978032;28;20046;-85
2021/09/07 05:26:03;;;;;;;18.20;9.90;;;17.30;97.90;;;;;;4994522;28;20038;-86
2021/09/07 05:28:28;;;;;;;14.55;9.88;;;17.30;97.90;;;;;;4995426;28;20133;-86
2021/09/07 05:30:54;;;;;;;18.98;10.45;;;17.40;97.90;;;;;;4985620;28;20038;-85
2021/09/07 05:33:19;;;;;;;22.10;11.32;;;17.40;97.90;;;;;;4984121;28;20287;-86
2021/09/07 05:35:45;;;;;;;15.05;10.50;;;17.40;98.00;;;;;;4979089;28;20405;-86
2021/09/07 05:38:10;;;;;;;25.02;12.27;;;17.40;98.00;;;;;;4996331;28;20127;-86
2021/09/07 05:40:36;;;;;;;17.83;11.50;;;17.40;98.00;;;;;;4998558;28;20038;-85
2021/09/07 05:43:01;;;;;;;20.08;12.25;;;17.40;97.90;;;;;;4985241;28;20054;-86
2021/09/07 05:45:27;;;;;;;22.50;11.07;;;17.50;97.90;;;;;;4979023;28;20042;-85
2021/09/07 05:47:52;;;;;;;17.88;10.98;;;17.50;97.80;;;;;;4996026;28;20049;-84
2021/09/07 05:50:18;;;;;;;22.40;11.45;;;17.50;97.70;;;;;;4978212;28;20078;-85
2021/09/07 05:52:44;;;;;;;20.25;12.07;;;17.50;97.60;;;;;;4996258;28;20042;-85
2021/09/07 05:55:10;;;;;;;16.77;10.90;;;17.50;97.60;;;;;;4995849;28;20042;-87
2021/09/07 05:57:37;;;;;;;15.43;10.20;;;17.50;97.50;;;;;;4977739;28;20057;-85
2021/09/07 06:00:04;;;;;;;17.35;10.77;;;17.50;97.00;;;;;;4995619;28;20129;-85
2021/09/07 06:02:30;;;;;;;23.13;11.45;;;17.50;97.00;;;;;;4978880;28;20046;-84
2021/09/07 06:04:55;;;;;;;19.48;11.60;;;17.50;97.00;;;;;;4978071;28;20417;-84
2021/09/07 06:07:23;;;;;;;17.73;11.55;;;17.60;97.00;;;;;;4977769;28;20092;-85
2021/09/07 06:09:48;;;;;;;15.77;9.73;;;17.60;97.00;;;;;;4995575;28;20104;-86
2021/09/07 06:12:14;;;;;;;16.05;10.30;;;17.60;97.00;;;;;;4978259;28;20056;-85
2021/09/07 06:14:39;;;;;;;22.98;12.20;;;17.60;97.00;;;;;;5009930;28;20100;-85
2021/09/07 06:17:07;;;;;;;20.15;10.60;;;17.70;97.00;;;;;;4978656;28;20559;-86
2021/09/07 06:19:33;;;;;;;16.55;10.50;;;17.70;97.00;;;;;;4996826;28;20041;-87
2021/09/07 06:21:59;;;;;;;13.02;9.95;;;17.70;97.20;;;;;;4992583;28;20034;-86
2021/09/07 06:24:24;;;;;;;16.30;10.57;;;17.70;97.40;;;;;;4978257;28;20353;-86
2021/09/07 06:26:50;;;;;;;20.85;10.63;;;17.80;97.40;;;;;;4996080;28;20048;-87
2021/09/07 06:29:16;;;;;;;20.90;12.30;;;17.80;97.40;;;;;;4974968;28;20042;-86
2021/09/07 06:31:41;;;;;;;18.35;10.82;;;17.90;97.10;;;;;;4991551;28;20046;-85
2021/09/07 06:34:07;;;;;;;18.05;11.30;;;17.90;96.40;;;;;;4993506;28;20386;-85
2021/09/07 06:36:32;;;;;;;21.98;10.98;;;17.90;96.10;;;;;;4993038;28;20076;-86
2021/09/07 06:38:58;;;;;;;20.80;11.73;;;18.00;96.10;;;;;;4994936;28;20050;-86
2021/09/07 06:41:23;;;;;;;15.88;10.82;;;18.00;96.10;;;;;;5010793;28;20069;-86
2021/09/07 06:43:49;;;;;;;22.35;11.73;;;18.10;95.80;;;;;;5011367;28;20038;-87
2021/09/07 06:46:14;;;;;;;18.92;11.35;;;18.20;95.60;;;;;;4995892;28;20038;-87
2021/09/07 06:48:40;;;;;;;19.70;11.23;;;18.20;95.60;;;;;;5000105;28;20038;-85
2021/09/07 06:51:06;;;;;;;17.85;10.18;;;18.30;94.80;;;;;;4998030;28;20050;-85
2021/09/07 06:53:31;;;;;;;16.15;10.77;;;18.30;94.70;;;;;;4995259;28;20529;-86
2021/09/07 06:55:57;;;;;;;14.63;10.48;;;18.40;94.70;;;;;;5011149;28;20039;-86
2021/09/07 06:58:22;;;;;;;20.63;9.90;;;18.40;94.90;;;;;;5010456;28;20137;-86
2021/09/07 07:00:48;;;;;;;17.35;11.40;;;18.50;95.30;;;;;;4995084;28;20153;-86
2021/09/07 07:03:14;;;;;;;17.98;9.95;;;18.60;95.20;;;;;;4978491;28;20133;-85
2021/09/07 07:05:39;;;;;;;16.85;11.30;;;18.70;94.70;;;;;;4995108;28;20113;-85
2021/09/07 07:08:05;;;;;;;18.02;11.23;;;18.80;94.50;;;;;;5011337;28;20264;-86
2021/09/07 07:10:31;;;;;;;17.77;12.15;;;18.80;94.70;;;;;;5010943;28;20050;-86
2021/09/07 07:12:56;;;;;;;17.35;11.10;;;18.90;94.60;;;;;;4978267;28;20073;-86
2021/09/07 07:15:22;;;;;;;18.15;12.50;;;19.00;94.00;;;;;;4978139;28;20317;-84
2021/09/07 07:17:47;;;;;;;17.38;11.15;;;19.10;93.90;;;;;;4999350;28;20592;-86
2021/09/07 07:20:13;;;;;;;17.30;10.90;;;19.10;93.70;;;;;;4983448;28;20291;-86
2021/09/07 07:22:38;;;;;;;20.67;11.55;;;19.20;93.80;;;;;;4998982;28;20205;-87
2021/09/07 07:25:04;;;;;;;19.33;11.57;;;19.30;93.80;;;;;;4982334;28;20373;-87
2021/09/07 07:27:30;;;;;;;19.23;11.88;;;19.30;93.50;;;;;;4999520;28;20148;-85
2021/09/07 07:29:56;;;;;;;19.08;11.68;;;19.40;93.70;;;;;;4998942;28;20121;-86
2021/09/07 07:32:21;;;;;;;20.27;11.80;;;19.40;93.40;;;;;;4999221;28;20428;-86
2021/09/07 07:34:47;;;;;;;17.42;11.05;;;19.50;94.00;;;;;;5014655;28;20034;-85
2021/09/07 07:37:13;;;;;;;14.90;9.82;;;19.60;93.70;;;;;;4982782;28;20046;-85
2021/09/07 07:39:38;;;;;;;17.95;12.07;;;19.70;94.00;;;;;;5014360;28;20504;-86
2021/09/07 07:42:04;;;;;;;17.80;12.05;;;19.80;93.40;;;;;;4999760;28;20093;-87
2021/09/07 07:44:29;;;;;;;16.85;11.02;;;19.90;93.10;;;;;;4983447;28;20297;-86
2021/09/07 07:46:55;;;;;;;15.73;11.35;;;20.00;93.00;;;;;;5014242;28;20136;-85
2021/09/07 07:49:21;;;;;;;21.42;12.15;;;20.10;93.20;;;;;;4999695;28;20372;-85
2021/09/07 07:51:47;;;;;;;18.23;12.52;;;20.20;92.80;;;;;;4997868;28;20033;-85
2021/09/07 07:54:13;;;;;;;16.75;11.90;;;20.20;93.00;;;;;;4982018;28;20480;-86
2021/09/07 07:56:39;;;;;;;18.63;12.50;;;20.30;92.30;;;;;;5015741;28;20045;-86
2021/09/07 07:59:05;;;;;;;16.65;10.38;;;20.40;92.40;;;;;;4981060;28;20054;-86
2021/09/07 08:01:31;;;;;;;15.45;10.70;;;20.40;92.60;;;;;;4981847;28;20046;-85
2021/09/07 08:03:57;;;;;;;16.13;11.35;;;20.40;92.50;;;;;;4998745;28;20110;-86
2021/09/07 08:06:23;;;;;;;18.25;12.13;;;20.50;92.80;;;;;;4997906;28;20038;-86
2021/09/07 08:08:50;;;;;;;18.00;12.00;;;20.70;91.70;;;;;;5004225;28;20049;-86
2021/09/07 08:11:18;;;;;;;16.50;11.07;;;20.70;91.80;;;;;;4998517;28;20373;-86
2021/09/07 08:13:44;;;;;;;18.27;10.52;;;20.70;91.30;;;;;;4999341;28;20057;-86
2021/09/07 08:16:10;;;;;;;15.20;10.05;;;20.80;91.50;;;;;;4997208;28;20042;-85
2021/09/07 08:18:35;;;;;;;16.85;10.55;;;20.80;90.80;;;;;;4981215;28;20405;-85
2021/09/07 08:21:01;;;;;;;17.70;11.18;;;20.90;91.20;;;;;;4980612;28;20042;-85
2021/09/07 08:23:26;;;;;;;16.70;10.30;;;21.00;91.30;;;;;;4980943;28;20359;-86
2021/09/07 08:25:52;;;;;;;16.38;10.23;;;21.10;91.00;;;;;;4997791;28;20031;-86
2021/09/07 08:28:18;;;;;;;14.63;9.45;;;21.30;90.30;;;;;;5013269;28;20076;-85
2021/09/07 08:30:44;;;;;;;19.10;9.90;;;21.40;89.20;;;;;;4999020;28;20124;-87
2021/09/07 08:33:15;;;;;;;13.63;10.68;;;21.40;90.40;;;;;;5014935;28;20053;-86
2021/09/07 08:35:41;;;;;;;14.77;10.82;;;21.50;90.70;;;;;;4984003;28;20042;-86
2021/09/07 08:38:07;;;;;;;15.45;10.73;;;21.50;90.30;;;;;;4998497;28;20046;-86
2021/09/07 08:40:32;;;;;;;14.68;10.25;;;21.60;90.50;;;;;;5009136;28;20037;-86
2021/09/07 08:43:01;;;;;;;14.70;10.40;;;21.50;90.90;;;;;;5022318;28;20402;-86
2021/09/07 08:45:28;;;;;;;17.27;10.93;;;21.60;90.00;;;;;;4997986;28;20030;-85
2021/09/07 08:47:57;;;;;;;13.18;8.90;;;21.50;90.10;;;;;;4984741;28;20105;-85
2021/09/07 08:50:23;;;;;;;15.80;10.15;;;21.50;90.10;;;;;;5017545;28;20112;-86
2021/09/07 08:52:48;;;;;;;14.43;10.10;;;21.60;88.90;;;;;;4997154;28;20053;-86
2021/09/07 08:55:14;;;;;;;15.90;10.88;;;21.60;89.30;;;;;;4998938;28;20042;-87
2021/09/07 08:57:40;;;;;;;18.73;9.90;;;21.60;89.70;;;;;;5014213;28;20046;-86
2021/09/07 09:00:07;;;;;;;16.83;10.35;;;21.70;88.70;;;;;;4997155;28;20468;-87
2021/09/07 09:02:40;;;;;;;14.68;9.85;;;21.60;89.50;;;;;;4997187;28;20104;-86
2021/09/07 09:05:06;;;;;;;15.05;10.18;;;21.70;90.30;;;;;;5012965;28;20050;-87
2021/09/07 09:07:32;;;;;;;16.05;10.00;;;21.80;89.50;;;;;;5013030;28;20066;-87
2021/09/07 09:09:59;;;;;;;14.73;9.63;;;21.80;89.40;;;;;;4996582;28;20042;-87
2021/09/07 09:12:35;;;;;;;12.77;8.88;;;21.90;88.40;;;;;;4997406;28;20062;-87
2021/09/07 09:15:08;;;;;;;12.20;8.38;;;22.00;88.00;;;;;;4980378;28;20034;-87
2021/09/07 09:17:34;;;;;;;12.05;8.27;;;22.10;88.20;;;;;;4997044;28;20481;-86
2021/09/07 09:20:07;;;;;;;13.73;8.98;;;22.30;87.30;;;;;;4997464;28;20042;-86
2021/09/07 09:22:41;;;;;;;13.20;7.47;;;22.40;86.00;;;;;;4996292;28;20074;-86
2021/09/07 09:25:35;;;;;;;10.55;7.50;;;22.40;84.00;;;;;;4995129;28;20042;-86
2021/09/07 09:28:01;;;;;;;13.63;8.68;;;22.60;84.90;;;;;;4980867;28;20133;-85
2021/09/07 09:30:48;;;;;;;13.18;8.77;;;22.60;83.40;;;;;;4997197;28;20500;-87
2021/09/07 09:33:18;;;;;;;12.88;8.07;;;22.70;84.00;;;;;;4996198;28;20046;-87
2021/09/07 09:35:49;;;;;;;10.90;8.00;;;22.80;85.00;;;;;;5013020;28;20073;-87
2021/09/07 09:38:16;;;;;;;10.53;7.83;;;22.90;84.70;;;;;;4987920;28;20069;-88
2021/09/07 09:40:43;;;;;;;13.93;8.40;;;23.00;84.20;;;;;;4997359;28;20042;-87
2021/09/07 09:43:43;;;;;;;12.82;8.40;;;23.10;84.80;;;;;;4979766;28;20034;-87
2021/09/07 09:46:18;;;;;;;14.82;8.23;;;23.20;83.10;;;;;;4996563;28;20046;-88
2021/09/07 09:48:44;;;;;;;13.05;8.52;;;23.30;85.80;;;;;;4995531;28;20045;-86
2021/09/07 09:51:15;;;;;;;9.75;7.18;;;23.30;82.20;;;;;;4995214;28;20120;-86
2021/09/07 09:53:47;;;;;;;14.48;8.40;;;23.40;82.00;;;;;;4996525;28;20049;-86
2021/09/07 09:56:13;;;;;;;11.23;7.45;;;23.50;80.90;;;;;;4997122;28;20073;-86
2021/09/07 09:58:38;;;;;;;12.07;8.45;;;23.50;82.80;;;;;;4995449;28;20404;-87
2021/09/07 10:01:05;;;;;;;12.50;8.20;;;23.40;82.30;;;;;;4981569;28;20050;-88
2021/09/07 10:03:31;;;;;;;12.68;9.13;;;23.50;81.90;;;;;;4980373;28;20038;-88
2021/09/07 10:05:57;;;;;;;14.00;9.98;;;23.50;81.80;;;;;;4980592;28;20049;-88
2021/09/07 10:08:23;;;;;;;13.75;9.13;;;23.40;81.70;;;;;;4979892;28;20046;-87
2021/09/07 10:11:00;;;;;;;14.43;9.40;;;23.40;81.00;;;;;;5012158;28;20097;-87
2021/09/07 10:13:27;;;;;;;11.40;8.27;;;23.50;82.20;;;;;;4982477;28;20042;-88
2021/09/07 10:16:04;;;;;;;12.05;8.15;;;23.50;80.60;;;;;;4982222;28;20042;-87
2021/09/07 10:18:39;;;;;;;11.18;8.55;;;23.60;82.50;;;;;;4996634;28;20104;-87
2021/09/07 10:23:52;;;;;;;9.35;7.32;;;23.80;80.10;;;;;;4996103;28;20412;-87
2021/09/07 10:26:40;;;;;;;10.60;8.20;;;23.80;80.20;;;;;;4995903;28;20449;-88
2021/09/07 10:29:10;;;;;;;9.90;7.88;;;23.90;82.40;;;;;;4978426;28;20488;-87
2021/09/07 10:31:38;;;;;;;15.68;9.15;;;23.90;79.20;;;;;;4995308;28;20046;-87
2021/09/07 10:34:04;;;;;;;11.75;8.57;;;23.90;79.80;;;;;;4993199;28;20287;-87
2021/09/07 10:36:32;;;;;;;12.60;8.52;;;23.90;79.20;;;;;;5022976;28;20110;-88
2021/09/07 10:39:01;;;;;;;13.00;9.15;;;23.80;80.30;;;;;;4984732;28;20050;-86
2021/09/07 10:41:32;;;;;;;12.05;8.02;;;23.80;79.80;;;;;;4998763;28;20030;-87
2021/09/07 10:44:06;;;;;;;12.93;8.57;;;23.80;80.60;;;;;;4994901;28;20092;-89
2021/09/07 10:46:57;;;;;;;11.10;7.85;;;23.80;80.20;;;;;;5012586;28;20038;-85
2021/09/07 10:49:25;;;;;;;11.25;7.93;;;23.90;79.80;;;;;;4994664;28;20133;-81
2021/09/07 10:52:15;;;;;;;13.00;8.57;;;23.90;81.50;;;;;;4977761;28;20045;-87
2021/09/07 10:54:52;;;;;;;12.75;8.20;;;23.90;81.80;;;;;;5011964;28;20433;-85
2021/09/07 10:57:43;;;;;;;11.70;7.93;;;23.90;80.10;;;;;;5010509;28;20100;-86
2021/09/07 11:00:17;;;;;;;10.68;6.55;;;24.10;79.60;;;;;;4978579;28;20086;-85
2021/09/07 11:02:44;;;;;;;12.00;7.80;;;24.10;79.70;;;;;;5016320;28;20062;-87
2021/09/07 11:05:44;;;;;;;10.40;7.13;;;24.20;80.90;;;;;;5002229;28;20479;-87
2021/09/07 11:08:17;;;;;;;9.63;7.32;;;24.30;79.50;;;;;;4983360;28;20077;-87
2021/09/07 11:10:46;;;;;;;13.18;8.35;;;24.50;78.50;;;;;;4973849;28;20034;-86
2021/09/07 11:13:24;;;;;;;11.48;7.80;;;24.50;78.60;;;;;;5009959;28;20620;-87
2021/09/07 11:15:51;;;;;;;12.50;8.18;;;24.60;79.40;;;;;;4978817;28;20105;-83
2021/09/07 11:18:31;;;;;;;12.45;8.13;;;24.60;78.20;;;;;;5010648;28;20050;-87
2021/09/07 11:20:59;;;;;;;12.13;8.40;;;24.70;78.30;;;;;;4978239;28;20096;-87
2021/09/07 11:23:30;;;;;;;13.57;8.25;;;24.70;77.50;;;;;;5010664;28;20045;-86
2021/09/07 11:26:01;;;;;;;11.02;7.38;;;24.80;78.40;;;;;;4997199;28;20101;-86
2021/09/07 11:28:28;;;;;;;11.32;7.70;;;24.90;78.20;;;;;;5009479;28;20073;-85
2021/09/07 11:30:55;;;;;;;12.00;7.88;;;24.90;76.80;;;;;;4990013;28;20061;-85
2021/09/07 11:33:26;;;;;;;10.38;6.95;;;25.00;77.40;;;;;;4994115;28;20112;-86
2021/09/07 11:35:58;;;;;;;10.85;7.40;;;25.00;79.00;;;;;;4993921;28;20070;-85
2021/09/07 11:38:29;;;;;;;11.17;8.27;;;25.10;75.90;;;;;;4994235;28;20084;-85
2021/09/07 11:40:57;;;;;;;9.65;6.93;;;25.10;76.10;;;;;;4994734;28;20348;-86
2021/09/07 11:43:36;;;;;;;13.18;7.72;;;25.20;76.70;;;;;;4995809;28;20066;-87
2021/09/07 11:46:38;;;;;;;14.38;6.80;;;25.20;77.20;;;;;;4993149;28;20065;-86
2021/09/07 11:49:03;;;;;;;8.38;5.75;;;25.30;77.40;;;;;;4960155;29;20093;-86
2021/09/07 11:51:32;;;;;;;8.30;5.85;;;25.30;77.50;;;;;;4983176;28;20042;-85
2021/09/07 11:54:02;;;;;;;10.98;6.82;;;25.40;75.90;;;;;;4997612;28;20349;-87
2021/09/07 11:56:30;;;;;;;9.88;7.38;;;25.40;77.90;;;;;;4988402;28;20038;-87
2021/09/07 11:59:09;;;;;;;10.35;6.93;;;25.40;74.40;;;;;;4997849;28;20541;-85
2021/09/07 12:01:40;;;;;;;11.70;7.15;;;25.40;75.90;;;;;;4998054;28;20477;-86
2021/09/07 12:04:05;;;;;;;9.60;6.80;;;25.40;75.10;;;;;;4983627;28;20050;-86
2021/09/07 12:06:41;;;;;;;9.90;6.70;;;25.40;74.60;;;;;;5015787;28;20042;-86
2021/09/07 12:09:30;;;;;;;9.52;6.65;;;25.30;75.00;;;;;;4999043;28;20070;-87
2021/09/07 12:12:11;;;;;;;7.05;5.47;;;25.40;75.20;;;;;;4979729;28;20065;-87
2021/09/07 12:14:44;;;;;;;9.40;6.65;;;25.40;76.30;;;;;;4997829;28;20038;-87
2021/09/07 12:17:16;;;;;;;9.10;6.30;;;25.50;73.90;;;;;;4997142;28;20108;-86
2021/09/07 12:19:43;;;;;;;8.87;6.13;;;25.60;75.40;;;;;;5013473;28;20132;-85
2021/09/07 12:22:20;;;;;;;10.02;6.65;;;25.70;76.10;;;;;;4996563;28;20089;-86
2021/09/07 12:25:14;;;;;;;7.68;6.13;;;25.70;75.30;;;;;;4980903;28;20050;-86
2021/09/07 12:27:48;;;;;;;13.60;6.32;;;25.80;75.00;;;;;;4997039;28;20042;-86
2021/09/07 12:30:16;;;;;;;9.20;6.55;;;25.80;77.10;;;;;;4998422;28;20042;-87
2021/09/07 12:33:05;;;;;;;9.32;6.25;;;25.90;73.50;;;;;;4997714;28;20042;-87
2021/09/07 12:35:31;;;;;;;9.40;6.20;;;25.90;73.40;;;;;;4998025;28;20049;-88
2021/09/07 12:38:00;;;;;;;7.43;5.63;;;26.00;73.80;;;;;;4997144;28;20058;-86